createdAt,value
2023-01-19T00:00:57.111Z,20.07
2023-01-19T00:01:57.122Z,20.08
2023-01-19T00:02:57.139Z,20.07
2023-01-19T00:03:57.125Z,20.07
2023-01-19T00:04:57.106Z,20.07
2023-01-19T00:05:57.184Z,20.07
2023-01-19T00:06:57.124Z,20.07
2023-01-19T00:07:57.178Z,20.07
2023-01-19T00:08:57.124Z,20.08
2023-01-19T00:09:57.137Z,20.05
2023-01-19T00:10:57.136Z,20.07
2023-01-19T00:11:57.141Z,20.05
2023-01-19T00:12:57.155Z,20.02
2023-01-19T00:13:57.156Z,20.04
2023-01-19T00:14:57.189Z,20.04
2023-01-19T00:15:57.232Z,20.05
2023-01-19T00:16:57.173Z,20.04
2023-01-19T00:17:57.182Z,20.02
2023-01-19T00:18:57.175Z,20.02
2023-01-19T00:19:57.156Z,20.01
2023-01-19T00:20:57.153Z,20.01
2023-01-19T00:21:57.190Z,20.02
2023-01-19T00:22:57.667Z,20.02
2023-01-19T00:23:57.162Z,20.02
2023-01-19T00:24:57.156Z,20.01
2023-01-19T00:25:57.152Z,20.02
2023-01-19T00:26:57.142Z,20.02
2023-01-19T00:27:57.219Z,20.01
2023-01-19T00:28:57.138Z,20.01
2023-01-19T00:29:57.139Z,20.02
2023-01-19T00:30:57.156Z,20.02
2023-01-19T00:31:57.160Z,20.02
2023-01-19T00:32:57.214Z,20.01
2023-01-19T00:33:57.174Z,20.01
2023-01-19T00:34:57.161Z,20.02
2023-01-19T00:35:57.163Z,20.01
2023-01-19T00:36:57.143Z,20.00
2023-01-19T00:37:57.151Z,20.00
2023-01-19T00:38:57.142Z,20.00
2023-01-19T00:39:57.163Z,20.00
2023-01-19T00:40:57.157Z,20.01
2023-01-19T00:41:57.145Z,20.00
2023-01-19T00:42:57.275Z,20.01
2023-01-19T00:43:57.154Z,20.00
2023-01-19T00:44:57.181Z,20.00
2023-01-19T00:45:57.237Z,19.98
2023-01-19T00:46:57.139Z,20.00
2023-01-19T00:47:57.318Z,20.00
2023-01-19T00:48:57.146Z,19.98
2023-01-19T00:49:57.129Z,19.98
2023-01-19T00:50:57.115Z,20.00
2023-01-19T00:51:57.134Z,19.98
2023-01-19T00:52:57.463Z,19.98
2023-01-19T00:53:57.134Z,19.98
2023-01-19T00:54:57.136Z,19.97
2023-01-19T00:55:57.132Z,19.97
2023-01-19T00:56:57.157Z,19.98
2023-01-19T00:57:57.169Z,19.98
2023-01-19T00:58:57.144Z,19.97
2023-01-19T00:59:57.137Z,19.95
2023-01-19T01:00:57.382Z,19.97
2023-01-19T01:01:57.354Z,19.95
2023-01-19T01:02:57.248Z,19.95
2023-01-19T01:03:57.152Z,19.95
2023-01-19T01:04:57.133Z,19.95
2023-01-19T01:05:57.123Z,19.97
2023-01-19T01:06:57.115Z,19.97
2023-01-19T01:07:57.123Z,19.92
2023-01-19T01:08:57.103Z,19.97
2023-01-19T01:09:57.128Z,19.95
2023-01-19T01:10:57.113Z,19.95
2023-01-19T01:11:57.115Z,19.94
2023-01-19T01:13:21.709Z,19.95
2023-01-19T01:13:57.113Z,19.95
2023-01-19T01:14:57.112Z,19.94
2023-01-19T01:15:57.139Z,19.94
2023-01-19T01:16:57.129Z,19.95
2023-01-19T01:17:57.105Z,19.94
2023-01-19T01:18:57.112Z,19.94
2023-01-19T01:19:57.103Z,19.94
2023-01-19T01:20:57.108Z,19.92
2023-01-19T01:21:57.121Z,19.92
2023-01-19T01:22:57.188Z,19.90
2023-01-19T01:23:57.089Z,19.90
2023-01-19T01:24:57.075Z,19.92
2023-01-19T01:25:57.074Z,19.92
2023-01-19T01:26:57.067Z,19.94
2023-01-19T01:27:57.062Z,19.92
2023-01-19T01:28:57.052Z,19.90
2023-01-19T01:29:57.056Z,19.92
2023-01-19T01:30:57.062Z,19.92
2023-01-19T01:31:57.107Z,19.94
2023-01-19T01:32:57.060Z,19.90
2023-01-19T01:33:57.071Z,19.92
2023-01-19T01:34:57.081Z,19.89
2023-01-19T01:35:57.037Z,19.90
2023-01-19T01:36:57.015Z,19.90
2023-01-19T01:37:57.019Z,19.92
2023-01-19T01:38:57.029Z,19.90
2023-01-19T01:39:57.037Z,19.90
2023-01-19T01:40:57.020Z,19.89
2023-01-19T01:41:57.543Z,19.89
2023-01-19T01:42:57.014Z,19.90
2023-01-19T01:43:56.994Z,19.90
2023-01-19T01:44:57.012Z,19.89
2023-01-19T01:45:57.030Z,19.89
2023-01-19T01:46:56.984Z,19.89
2023-01-19T01:47:56.962Z,19.90
2023-01-19T01:48:56.945Z,19.89
2023-01-19T01:49:56.933Z,19.90
2023-01-19T01:50:56.933Z,19.90
2023-01-19T01:51:56.947Z,19.89
2023-01-19T01:53:06.319Z,19.90
2023-01-19T01:53:56.901Z,19.89
2023-01-19T01:54:56.911Z,19.90
2023-01-19T01:55:56.913Z,19.92
2023-01-19T01:56:56.920Z,19.90
2023-01-19T01:57:56.955Z,19.90
2023-01-19T01:58:56.956Z,19.90
2023-01-19T01:59:56.942Z,19.90
2023-01-19T02:00:57.081Z,19.92
2023-01-19T02:01:57.114Z,19.90
2023-01-19T02:02:56.969Z,19.92
2023-01-19T02:03:56.916Z,19.92
2023-01-19T02:04:56.907Z,19.92
2023-01-19T02:05:56.904Z,19.92
2023-01-19T02:06:56.891Z,19.90
2023-01-19T02:07:56.882Z,19.92
2023-01-19T02:08:56.870Z,19.94
2023-01-19T02:09:56.902Z,19.94
2023-01-19T02:10:56.871Z,19.94
2023-01-19T02:11:56.849Z,19.94
2023-01-19T02:12:56.985Z,19.95
2023-01-19T02:13:56.837Z,19.94
2023-01-19T02:14:56.833Z,19.95
2023-01-19T02:15:56.837Z,19.95
2023-01-19T02:16:56.858Z,19.97
2023-01-19T02:17:56.825Z,19.97
2023-01-19T02:18:56.813Z,19.95
2023-01-19T02:19:56.830Z,19.97
2023-01-19T02:20:56.838Z,20.00
2023-01-19T02:21:56.847Z,20.00
2023-01-19T02:22:56.812Z,20.01
2023-01-19T02:23:56.814Z,20.01
2023-01-19T02:24:56.817Z,20.02
2023-01-19T02:25:56.797Z,20.01
2023-01-19T02:26:56.794Z,20.01
2023-01-19T02:27:56.803Z,20.02
2023-01-19T02:28:56.779Z,20.01
2023-01-19T02:29:56.781Z,20.02
2023-01-19T02:30:56.832Z,20.02
2023-01-19T02:31:56.779Z,20.02
2023-01-19T02:32:56.774Z,20.04
2023-01-19T02:33:56.826Z,20.04
2023-01-19T02:34:56.831Z,20.07
2023-01-19T02:35:56.848Z,20.04
2023-01-19T02:36:56.820Z,20.07
2023-01-19T02:37:56.785Z,20.07
2023-01-19T02:38:56.765Z,20.07
2023-01-19T02:39:56.774Z,20.07
2023-01-19T02:40:56.749Z,20.07
2023-01-19T02:41:56.752Z,20.07
2023-01-19T02:42:56.755Z,20.08
2023-01-19T02:43:56.718Z,20.07
2023-01-19T02:44:56.709Z,20.08
2023-01-19T02:45:56.710Z,20.07
2023-01-19T02:46:56.668Z,20.08
2023-01-19T02:47:56.683Z,20.07
2023-01-19T02:48:56.715Z,20.08
2023-01-19T02:49:56.705Z,20.08
2023-01-19T02:50:56.703Z,20.10
2023-01-19T02:51:56.724Z,20.10
2023-01-19T02:52:56.692Z,20.12
2023-01-19T02:53:56.679Z,20.12
2023-01-19T02:54:56.666Z,20.10
2023-01-19T02:55:56.661Z,20.10
2023-01-19T02:56:56.647Z,20.10
2023-01-19T02:57:56.684Z,20.10
2023-01-19T02:58:56.639Z,20.10
2023-01-19T02:59:56.619Z,20.10
2023-01-19T03:00:56.627Z,20.12
2023-01-19T03:01:56.715Z,20.12
2023-01-19T03:02:56.717Z,20.10
2023-01-19T03:03:56.663Z,20.13
2023-01-19T03:04:56.653Z,20.12
2023-01-19T03:05:56.629Z,20.12
2023-01-19T03:06:56.617Z,20.13
2023-01-19T03:07:56.613Z,20.13
2023-01-19T03:08:56.609Z,20.13
2023-01-19T03:09:56.609Z,20.13
2023-01-19T03:10:56.586Z,20.13
2023-01-19T03:11:56.578Z,20.13
2023-01-19T03:12:56.580Z,20.13
2023-01-19T03:13:56.570Z,20.12
2023-01-19T03:14:56.563Z,20.13
2023-01-19T03:15:56.685Z,20.13
2023-01-19T03:16:56.737Z,20.13
2023-01-19T03:17:56.536Z,20.13
2023-01-19T03:18:56.561Z,20.13
2023-01-19T03:19:56.560Z,20.16
2023-01-19T03:20:56.568Z,20.16
2023-01-19T03:21:56.569Z,20.13
2023-01-19T03:22:56.535Z,20.17
2023-01-19T03:23:56.542Z,20.17
2023-01-19T03:24:56.503Z,20.17
2023-01-19T03:25:56.492Z,20.16
2023-01-19T03:26:56.500Z,20.15
2023-01-19T03:27:56.490Z,20.16
2023-01-19T03:28:56.450Z,20.16
2023-01-19T03:29:56.447Z,20.15
2023-01-19T03:30:56.495Z,20.15
2023-01-19T03:31:56.422Z,20.15
2023-01-19T03:32:57.339Z,20.15
2023-01-19T03:33:56.448Z,20.16
2023-01-19T03:34:56.470Z,20.16
2023-01-19T03:35:56.444Z,20.17
2023-01-19T03:36:56.437Z,20.17
2023-01-19T03:37:56.429Z,20.17
2023-01-19T03:38:56.435Z,20.17
2023-01-19T03:39:56.421Z,20.19
2023-01-19T03:40:56.395Z,20.19
2023-01-19T03:41:56.384Z,20.17
2023-01-19T03:42:56.355Z,20.19
2023-01-19T03:43:56.361Z,20.17
2023-01-19T03:44:56.340Z,20.19
2023-01-19T03:45:56.376Z,20.17
2023-01-19T03:46:56.310Z,20.19
2023-01-19T03:47:56.333Z,20.17
2023-01-19T03:48:56.350Z,20.19
2023-01-19T03:49:56.373Z,20.22
2023-01-19T03:50:56.393Z,20.20
2023-01-19T03:51:56.418Z,20.22
2023-01-19T03:52:56.391Z,20.22
2023-01-19T03:53:56.390Z,20.23
2023-01-19T03:54:56.400Z,20.22
2023-01-19T03:55:56.386Z,20.25
2023-01-19T03:56:56.381Z,20.22
2023-01-19T03:57:56.396Z,20.23
2023-01-19T03:58:57.107Z,20.23
2023-01-19T03:59:56.386Z,20.23
2023-01-19T04:00:56.460Z,20.23
2023-01-19T04:01:56.425Z,20.23
2023-01-19T04:02:56.416Z,20.25
2023-01-19T04:03:56.414Z,20.23
2023-01-19T04:04:56.398Z,20.23
2023-01-19T04:05:56.375Z,20.25
2023-01-19T04:06:56.376Z,20.25
2023-01-19T04:07:56.367Z,20.26
2023-01-19T04:08:56.329Z,20.25
2023-01-19T04:09:56.365Z,20.25
2023-01-19T04:10:56.310Z,20.26
2023-01-19T04:11:56.314Z,20.25
2023-01-19T04:12:56.301Z,20.25
2023-01-19T04:13:56.295Z,20.26
2023-01-19T04:14:56.298Z,20.26
2023-01-19T04:15:56.330Z,20.26
2023-01-19T04:16:56.316Z,20.26
2023-01-19T04:17:56.303Z,20.26
2023-01-19T04:18:56.302Z,20.26
2023-01-19T04:19:56.289Z,20.25
2023-01-19T04:20:56.291Z,20.27
2023-01-19T04:21:56.304Z,20.26
2023-01-19T04:22:56.300Z,20.26
2023-01-19T04:23:56.288Z,20.27
2023-01-19T04:24:56.281Z,20.27
2023-01-19T04:25:56.294Z,20.27
2023-01-19T04:26:56.265Z,20.30
2023-01-19T04:27:56.289Z,20.27
2023-01-19T04:28:56.253Z,20.27
2023-01-19T04:29:56.249Z,20.27
2023-01-19T04:30:56.362Z,20.27
2023-01-19T04:31:56.271Z,20.30
2023-01-19T04:32:56.299Z,20.27
2023-01-19T04:33:56.292Z,20.30
2023-01-19T04:34:56.263Z,20.27
2023-01-19T04:35:56.261Z,20.30
2023-01-19T04:36:56.247Z,20.30
2023-01-19T04:37:56.240Z,20.27
2023-01-19T04:38:56.230Z,20.31
2023-01-19T04:39:56.317Z,20.31
2023-01-19T04:40:56.213Z,20.30
2023-01-19T04:41:56.223Z,20.31
2023-01-19T04:42:56.191Z,20.31
2023-01-19T04:43:56.179Z,20.30
2023-01-19T04:44:56.165Z,20.30
2023-01-19T04:45:56.189Z,20.31
2023-01-19T04:46:56.181Z,20.30
2023-01-19T04:47:56.189Z,20.30
2023-01-19T04:48:56.179Z,20.31
2023-01-19T04:49:56.177Z,20.31
2023-01-19T04:50:56.190Z,20.31
2023-01-19T04:51:56.176Z,20.30
2023-01-19T04:52:56.147Z,20.31
2023-01-19T04:53:56.193Z,20.33
2023-01-19T04:54:56.125Z,20.31
2023-01-19T04:55:56.104Z,20.33
2023-01-19T04:56:56.084Z,20.31
2023-01-19T04:57:56.091Z,20.31
2023-01-19T04:58:56.063Z,20.33
2023-01-19T04:59:56.070Z,20.31
2023-01-19T05:00:56.100Z,20.33
2023-01-19T05:01:56.142Z,20.33
2023-01-19T05:02:56.128Z,20.33
2023-01-19T05:03:56.085Z,20.31
2023-01-19T05:04:56.049Z,20.31
2023-01-19T05:05:56.034Z,20.34
2023-01-19T05:06:56.033Z,20.34
2023-01-19T05:07:56.024Z,20.34
2023-01-19T05:08:55.984Z,20.34
2023-01-19T05:09:56.007Z,20.34
2023-01-19T05:10:55.971Z,20.34
2023-01-19T05:11:55.965Z,20.35
2023-01-19T05:12:55.969Z,20.35
2023-01-19T05:13:55.934Z,20.35
2023-01-19T05:14:55.926Z,20.34
2023-01-19T05:15:55.966Z,20.34
2023-01-19T05:16:55.911Z,20.35
2023-01-19T05:17:55.902Z,20.35
2023-01-19T05:18:55.903Z,20.34
2023-01-19T05:19:55.897Z,20.34
2023-01-19T05:20:55.872Z,20.34
2023-01-19T05:21:55.881Z,20.35
2023-01-19T05:22:55.844Z,20.35
2023-01-19T05:23:55.845Z,20.37
2023-01-19T05:24:55.824Z,20.35
2023-01-19T05:25:55.821Z,20.34
2023-01-19T05:26:55.799Z,20.37
2023-01-19T05:27:55.821Z,20.35
2023-01-19T05:28:55.777Z,20.35
2023-01-19T05:29:55.776Z,20.37
2023-01-19T05:30:55.798Z,20.37
2023-01-19T05:31:55.798Z,20.35
2023-01-19T05:32:55.749Z,20.35
2023-01-19T05:33:55.758Z,20.35
2023-01-19T05:34:55.746Z,20.37
2023-01-19T05:35:55.743Z,20.38
2023-01-19T05:36:55.741Z,20.37
2023-01-19T05:37:55.726Z,20.37
2023-01-19T05:38:56.692Z,20.37
2023-01-19T05:39:55.715Z,20.38
2023-01-19T05:40:55.684Z,20.37
2023-01-19T05:41:55.672Z,20.37
2023-01-19T05:42:55.663Z,20.37
2023-01-19T05:43:55.660Z,20.37
2023-01-19T05:44:55.649Z,20.37
2023-01-19T05:45:55.645Z,20.41
2023-01-19T05:46:55.670Z,20.38
2023-01-19T05:47:55.598Z,20.38
2023-01-19T05:48:55.593Z,20.38
2023-01-19T05:49:55.591Z,20.38
2023-01-19T05:50:55.573Z,20.38
2023-01-19T05:51:55.576Z,20.40
2023-01-19T05:52:55.564Z,20.38
2023-01-19T05:53:55.541Z,20.40
2023-01-19T05:54:55.558Z,20.41
2023-01-19T05:55:55.529Z,20.41
2023-01-19T05:56:55.502Z,20.41
2023-01-19T05:57:55.506Z,20.40
2023-01-19T05:58:55.476Z,20.41
2023-01-19T05:59:55.461Z,20.38
2023-01-19T06:00:55.550Z,20.41
2023-01-19T06:01:55.463Z,20.40
2023-01-19T06:02:55.549Z,20.40
2023-01-19T06:03:55.472Z,20.42
2023-01-19T06:04:55.439Z,20.41
2023-01-19T06:05:55.427Z,20.41
2023-01-19T06:06:55.417Z,20.41
2023-01-19T06:07:55.414Z,20.41
2023-01-19T06:08:55.391Z,20.41
2023-01-19T06:09:55.394Z,20.42
2023-01-19T06:10:55.375Z,20.41
2023-01-19T06:11:55.357Z,20.42
2023-01-19T06:12:55.348Z,20.42
2023-01-19T06:13:55.333Z,20.42
2023-01-19T06:14:55.332Z,20.42
2023-01-19T06:15:55.331Z,20.42
2023-01-19T06:16:55.306Z,20.44
2023-01-19T06:17:55.299Z,20.44
2023-01-19T06:18:55.296Z,20.44
2023-01-19T06:19:55.297Z,20.44
2023-01-19T06:20:55.278Z,20.46
2023-01-19T06:21:55.293Z,20.44
2023-01-19T06:22:55.259Z,20.44
2023-01-19T06:23:55.255Z,20.44
2023-01-19T06:24:55.232Z,20.44
2023-01-19T06:25:55.236Z,20.46
2023-01-19T06:26:55.225Z,20.44
2023-01-19T06:27:55.235Z,20.44
2023-01-19T06:28:55.216Z,20.46
2023-01-19T06:29:55.200Z,20.44
2023-01-19T06:30:55.286Z,20.46
2023-01-19T06:31:55.242Z,20.46
2023-01-19T06:32:55.159Z,20.46
2023-01-19T06:33:55.170Z,20.46
2023-01-19T06:34:55.144Z,20.46
2023-01-19T06:35:55.137Z,20.44
2023-01-19T06:36:55.124Z,20.46
2023-01-19T06:37:55.118Z,20.46
2023-01-19T06:38:55.122Z,20.44
2023-01-19T06:39:55.135Z,20.48
2023-01-19T06:40:55.109Z,20.46
2023-01-19T06:41:55.096Z,20.46
2023-01-19T06:42:55.079Z,20.48
2023-01-19T06:43:55.066Z,20.48
2023-01-19T06:44:55.066Z,20.46
2023-01-19T06:45:55.252Z,20.46
2023-01-19T06:47:15.508Z,20.46
2023-01-19T06:47:55.070Z,20.48
2023-01-19T06:48:55.051Z,20.46
2023-01-19T06:49:55.057Z,20.46
2023-01-19T06:50:56.612Z,20.46
2023-01-19T06:51:55.034Z,20.46
2023-01-19T06:52:55.012Z,20.46
2023-01-19T06:53:55.033Z,20.48
2023-01-19T06:54:55.521Z,20.46
2023-01-19T06:55:55.015Z,20.48
2023-01-19T06:56:55.009Z,20.51
2023-01-19T06:57:55.003Z,20.53
2023-01-19T06:58:54.993Z,20.54
2023-01-19T06:59:54.968Z,20.58
2023-01-19T07:00:55.062Z,20.58
2023-01-19T07:01:55.194Z,20.61
2023-01-19T07:02:54.980Z,20.63
2023-01-19T07:03:54.929Z,20.63
2023-01-19T07:04:54.904Z,20.63
2023-01-19T07:05:54.892Z,20.64
2023-01-19T07:06:54.910Z,20.64
2023-01-19T07:07:54.884Z,20.66
2023-01-19T07:08:54.902Z,20.69
2023-01-19T07:09:54.877Z,20.71
2023-01-19T07:11:25.279Z,20.72
2023-01-19T07:11:54.815Z,20.73
2023-01-19T07:12:54.805Z,20.73
2023-01-19T07:13:54.787Z,20.73
2023-01-19T07:14:54.794Z,20.75
2023-01-19T07:15:54.796Z,20.75
2023-01-19T07:16:54.788Z,20.76
2023-01-19T07:17:54.764Z,20.76
2023-01-19T07:18:54.758Z,20.78
2023-01-19T07:19:54.761Z,20.78
2023-01-19T07:20:54.756Z,20.78
2023-01-19T07:21:54.756Z,20.79
2023-01-19T07:22:54.749Z,20.79
2023-01-19T07:23:54.725Z,20.81
2023-01-19T07:24:54.705Z,20.82
2023-01-19T07:25:54.691Z,20.81
2023-01-19T07:26:54.684Z,20.82
2023-01-19T07:27:54.670Z,20.83
2023-01-19T07:28:54.649Z,20.82
2023-01-19T07:29:54.608Z,20.83
2023-01-19T07:30:54.706Z,20.85
2023-01-19T07:31:54.739Z,20.85
2023-01-19T07:32:54.579Z,20.87
2023-01-19T07:33:54.600Z,20.87
2023-01-19T07:34:54.568Z,20.85
2023-01-19T07:35:54.538Z,20.87
2023-01-19T07:36:54.504Z,20.88
2023-01-19T07:37:54.472Z,20.88
2023-01-19T07:38:54.474Z,20.88
2023-01-19T07:39:54.504Z,20.88
2023-01-19T07:40:54.443Z,20.91
2023-01-19T07:41:54.431Z,20.93
2023-01-19T07:42:54.427Z,20.91
2023-01-19T07:43:55.091Z,20.93
2023-01-19T07:44:54.401Z,20.93
2023-01-19T07:45:54.416Z,20.94
2023-01-19T07:46:54.381Z,20.93
2023-01-19T07:47:54.367Z,20.94
2023-01-19T07:48:54.357Z,20.94
2023-01-19T07:49:54.340Z,20.94
2023-01-19T07:50:54.366Z,20.90
2023-01-19T07:51:54.371Z,20.88
2023-01-19T07:52:54.342Z,20.88
2023-01-19T07:53:54.339Z,20.87
2023-01-19T07:54:54.317Z,20.87
2023-01-19T07:55:54.307Z,20.87
2023-01-19T07:56:54.308Z,20.87
2023-01-19T07:57:54.346Z,20.87
2023-01-19T07:58:54.311Z,20.87
2023-01-19T07:59:54.294Z,20.87
2023-01-19T08:00:54.438Z,20.85
2023-01-19T08:01:54.449Z,20.87
2023-01-19T08:02:54.298Z,20.87
2023-01-19T08:03:54.297Z,20.87
2023-01-19T08:04:54.328Z,20.85
2023-01-19T08:05:54.257Z,20.87
2023-01-19T08:06:54.244Z,20.87
2023-01-19T08:07:54.299Z,20.85
2023-01-19T08:08:54.214Z,20.85
2023-01-19T08:09:54.228Z,20.87
2023-01-19T08:10:54.214Z,20.85
2023-01-19T08:11:54.196Z,20.87
2023-01-19T08:12:54.180Z,20.85
2023-01-19T08:13:54.179Z,20.83
2023-01-19T08:14:54.157Z,20.83
2023-01-19T08:15:54.234Z,20.85
2023-01-19T08:16:54.167Z,20.85
2023-01-19T08:17:54.153Z,20.85
2023-01-19T08:18:54.155Z,20.85
2023-01-19T08:19:45.098Z,20.88
2023-01-19T08:20:45.878Z,20.91
2023-01-19T08:21:45.812Z,20.97
2023-01-19T08:22:45.719Z,21.03
2023-01-19T08:23:45.800Z,21.08
2023-01-19T08:24:45.664Z,21.12
2023-01-19T08:25:45.643Z,21.18
2023-01-19T08:26:45.581Z,21.21
2023-01-19T08:27:45.590Z,21.24
2023-01-19T08:28:45.518Z,21.28
2023-01-19T08:29:45.498Z,21.31
2023-01-19T08:30:45.609Z,21.36
2023-01-19T08:31:45.571Z,21.42
2023-01-19T08:32:45.352Z,21.42
2023-01-19T08:33:45.318Z,21.43
2023-01-19T08:34:45.260Z,21.48
2023-01-19T08:35:45.228Z,21.51
2023-01-19T08:36:45.150Z,21.58
2023-01-19T08:37:45.084Z,21.61
2023-01-19T08:38:45.088Z,21.63
2023-01-19T08:39:45.076Z,21.66
2023-01-19T08:40:45.046Z,21.67
2023-01-19T08:41:45.026Z,21.68
2023-01-19T08:42:44.977Z,21.70
2023-01-19T08:43:44.964Z,21.73
2023-01-19T08:44:57.237Z,21.75
2023-01-19T08:45:45.023Z,21.77
2023-01-19T08:46:45.025Z,21.82
2023-01-19T08:47:44.951Z,21.89
2023-01-19T08:48:44.900Z,21.93
2023-01-19T08:49:44.812Z,21.93
2023-01-19T08:50:44.765Z,21.96
2023-01-19T08:51:44.742Z,21.96
2023-01-19T08:52:44.646Z,21.99
2023-01-19T08:53:44.672Z,22.02
2023-01-19T08:54:44.725Z,22.01
2023-01-19T08:55:44.641Z,22.01
2023-01-19T08:56:44.595Z,22.02
2023-01-19T08:57:44.516Z,22.02
2023-01-19T08:58:44.496Z,22.04
2023-01-19T08:59:44.439Z,22.08
2023-01-19T09:00:44.373Z,22.12
2023-01-19T09:01:44.471Z,22.14
2023-01-19T09:02:44.432Z,22.17
2023-01-19T09:03:44.348Z,22.12
2023-01-19T09:04:44.281Z,22.06
2023-01-19T09:05:44.240Z,22.11
2023-01-19T09:06:44.130Z,22.19
2023-01-19T09:07:44.048Z,22.23
2023-01-19T09:08:43.983Z,22.26
2023-01-19T09:09:43.952Z,22.29
2023-01-19T09:10:43.860Z,22.33
2023-01-19T09:11:43.805Z,22.35
2023-01-19T09:12:43.788Z,22.39
2023-01-19T09:13:43.699Z,22.41
2023-01-19T09:14:43.640Z,22.42
2023-01-19T09:15:43.728Z,22.45
2023-01-19T09:16:43.536Z,22.48
2023-01-19T09:17:43.520Z,22.46
2023-01-19T09:18:43.482Z,22.48
2023-01-19T09:19:43.458Z,22.48
2023-01-19T09:20:43.442Z,22.52
2023-01-19T09:21:43.403Z,22.57
2023-01-19T09:22:43.342Z,22.64
2023-01-19T09:23:43.311Z,22.69
2023-01-19T09:24:43.236Z,22.70
2023-01-19T09:25:43.182Z,22.67
2023-01-19T09:26:43.139Z,22.67
2023-01-19T09:27:43.080Z,22.67
2023-01-19T09:28:43.022Z,22.72
2023-01-19T09:29:42.972Z,22.76
2023-01-19T09:30:42.915Z,22.78
2023-01-19T09:31:42.919Z,22.82
2023-01-19T09:32:42.844Z,22.84
2023-01-19T09:33:42.820Z,22.85
2023-01-19T09:34:42.767Z,22.84
2023-01-19T09:35:42.693Z,22.82
2023-01-19T09:36:42.665Z,22.82
2023-01-19T09:37:42.593Z,22.86
2023-01-19T09:38:42.591Z,22.88
2023-01-19T09:39:42.627Z,22.94
2023-01-19T09:40:42.543Z,22.89
2023-01-19T09:41:42.511Z,22.78
2023-01-19T09:42:42.534Z,22.70
2023-01-19T09:43:42.449Z,22.69
2023-01-19T09:44:42.390Z,22.75
2023-01-19T09:45:42.359Z,22.79
2023-01-19T09:46:42.378Z,22.81
2023-01-19T09:47:42.249Z,22.85
2023-01-19T09:48:42.206Z,22.86
2023-01-19T09:49:42.147Z,22.93
2023-01-19T09:50:44.064Z,23.00
2023-01-19T09:51:42.019Z,23.00
2023-01-19T09:52:42.010Z,23.04
2023-01-19T09:53:41.928Z,23.03
2023-01-19T09:54:41.924Z,23.00
2023-01-19T09:55:41.922Z,22.96
2023-01-19T09:56:41.903Z,22.97
2023-01-19T09:57:41.854Z,22.97
2023-01-19T09:58:41.810Z,23.00
2023-01-19T09:59:41.763Z,23.03
2023-01-19T10:00:41.744Z,23.01
2023-01-19T10:01:41.740Z,23.04
2023-01-19T10:02:41.792Z,23.06
2023-01-19T10:03:41.545Z,23.09
2023-01-19T10:04:41.526Z,23.11
2023-01-19T10:05:41.443Z,23.06
2023-01-19T10:06:41.408Z,23.03
2023-01-19T10:07:41.344Z,23.00
2023-01-19T10:08:41.337Z,23.01
2023-01-19T10:09:41.279Z,23.03
2023-01-19T10:10:41.225Z,23.07
2023-01-19T10:11:51.837Z,23.11
2023-01-19T10:12:41.103Z,23.11
2023-01-19T10:13:41.148Z,23.12
2023-01-19T10:14:41.096Z,23.06
2023-01-19T10:15:41.074Z,23.07
2023-01-19T10:16:41.027Z,23.06
2023-01-19T10:17:40.974Z,23.07
2023-01-19T10:18:40.902Z,23.04
2023-01-19T10:19:40.853Z,23.07
2023-01-19T10:20:40.825Z,23.04
2023-01-19T10:21:40.786Z,23.00
2023-01-19T10:22:40.799Z,22.99
2023-01-19T10:23:40.749Z,22.93
2023-01-19T10:24:41.047Z,22.96
2023-01-19T10:25:40.810Z,23.06
2023-01-19T10:26:40.633Z,23.15
2023-01-19T10:27:40.563Z,23.19
2023-01-19T10:28:40.497Z,23.21
2023-01-19T10:29:40.451Z,23.23
2023-01-19T10:30:40.450Z,23.23
2023-01-19T10:31:40.540Z,23.23
2023-01-19T10:32:40.259Z,23.25
2023-01-19T10:33:40.201Z,23.23
2023-01-19T10:34:40.222Z,23.26
2023-01-19T10:35:40.186Z,23.26
2023-01-19T10:36:40.089Z,23.22
2023-01-19T10:37:40.062Z,23.18
2023-01-19T10:38:40.080Z,23.18
2023-01-19T10:39:40.074Z,23.09
2023-01-19T10:40:40.003Z,23.07
2023-01-19T10:41:40.030Z,23.07
2023-01-19T10:42:40.009Z,23.03
2023-01-19T10:43:39.964Z,23.03
2023-01-19T10:44:39.924Z,22.99
2023-01-19T10:45:39.965Z,22.88
2023-01-19T10:46:39.816Z,22.86
2023-01-19T10:47:39.789Z,22.89
2023-01-19T10:48:39.762Z,22.88
2023-01-19T10:49:39.699Z,22.84
2023-01-19T10:50:39.889Z,22.79
2023-01-19T10:51:39.681Z,22.76
2023-01-19T10:52:39.837Z,22.76
2023-01-19T10:53:39.695Z,22.70
2023-01-19T10:54:39.696Z,22.69
2023-01-19T10:55:39.557Z,22.75
2023-01-19T10:56:39.490Z,22.81
2023-01-19T10:57:39.442Z,22.84
2023-01-19T10:58:39.366Z,22.88
2023-01-19T10:59:39.295Z,22.93
2023-01-19T11:00:39.382Z,22.99
2023-01-19T11:01:39.308Z,23.01
2023-01-19T11:02:39.241Z,23.00
2023-01-19T11:03:39.103Z,23.01
2023-01-19T11:04:39.011Z,23.00
2023-01-19T11:05:38.962Z,23.00
2023-01-19T11:06:38.928Z,23.04
2023-01-19T11:07:38.888Z,23.03
2023-01-19T11:08:38.833Z,23.01
2023-01-19T11:09:38.801Z,23.06
2023-01-19T11:10:38.717Z,23.04
2023-01-19T11:11:38.661Z,23.12
2023-01-19T11:12:38.587Z,23.23
2023-01-19T11:13:38.455Z,23.38
2023-01-19T11:14:38.360Z,23.45
2023-01-19T11:15:38.325Z,23.50
2023-01-19T11:16:38.374Z,23.49
2023-01-19T11:17:38.222Z,23.47
2023-01-19T11:18:38.207Z,23.49
2023-01-19T11:19:38.097Z,23.44
2023-01-19T11:20:38.073Z,23.39
2023-01-19T11:21:37.996Z,23.42
2023-01-19T11:22:37.944Z,23.41
2023-01-19T11:23:37.859Z,23.39
2023-01-19T11:24:37.890Z,23.34
2023-01-19T11:25:37.873Z,23.26
2023-01-19T11:26:37.799Z,23.29
2023-01-19T11:27:37.785Z,23.31
2023-01-19T11:28:37.642Z,23.32
2023-01-19T11:29:37.584Z,23.37
2023-01-19T11:30:37.489Z,23.37
2023-01-19T11:31:37.431Z,23.38
2023-01-19T11:32:37.364Z,23.42
2023-01-19T11:33:37.340Z,23.42
2023-01-19T11:34:37.197Z,23.45
2023-01-19T11:35:37.157Z,23.42
2023-01-19T11:36:37.107Z,23.42
2023-01-19T11:37:37.028Z,23.39
2023-01-19T11:38:37.002Z,23.39
2023-01-19T11:39:37.032Z,23.38
2023-01-19T11:40:36.968Z,23.35
2023-01-19T11:41:36.938Z,23.35
2023-01-19T11:42:36.927Z,23.31
2023-01-19T11:43:48.686Z,23.26
2023-01-19T11:44:36.864Z,23.23
2023-01-19T11:45:36.883Z,23.21
2023-01-19T11:46:36.800Z,23.19
2023-01-19T11:47:36.778Z,23.19
2023-01-19T11:48:36.715Z,23.19
2023-01-19T11:49:36.684Z,23.21
2023-01-19T11:50:36.668Z,23.21
2023-01-19T11:51:36.668Z,23.21
2023-01-19T11:52:36.580Z,23.22
2023-01-19T11:53:36.507Z,23.22
2023-01-19T11:54:36.468Z,23.22
2023-01-19T11:55:36.455Z,23.26
2023-01-19T11:56:36.352Z,23.26
2023-01-19T11:57:36.299Z,23.26
2023-01-19T11:58:36.271Z,23.32
2023-01-19T11:59:36.158Z,23.35
2023-01-19T12:00:36.154Z,23.35
2023-01-19T12:01:36.071Z,23.37
2023-01-19T12:02:36.039Z,23.38
2023-01-19T12:03:36.112Z,23.39
2023-01-19T12:04:35.969Z,23.34
2023-01-19T12:05:35.920Z,23.29
2023-01-19T12:06:35.928Z,23.23
2023-01-19T12:07:35.894Z,23.21
2023-01-19T12:08:35.792Z,23.21
2023-01-19T12:09:35.798Z,23.23
2023-01-19T12:10:35.689Z,23.23
2023-01-19T12:11:35.678Z,23.25
2023-01-19T12:12:35.664Z,23.26
2023-01-19T12:13:35.605Z,23.25
2023-01-19T12:14:35.555Z,23.26
2023-01-19T12:15:35.492Z,23.29
2023-01-19T12:16:35.499Z,23.25
2023-01-19T12:17:35.410Z,23.26
2023-01-19T12:18:35.348Z,23.25
2023-01-19T12:19:35.293Z,23.26
2023-01-19T12:20:35.276Z,23.26
2023-01-19T12:21:35.235Z,23.26
2023-01-19T12:22:35.173Z,23.32
2023-01-19T12:23:35.104Z,23.32
2023-01-19T12:24:35.148Z,23.34
2023-01-19T12:25:35.012Z,23.34
2023-01-19T12:26:34.968Z,23.35
2023-01-19T12:27:34.933Z,23.37
2023-01-19T12:28:34.884Z,23.39
2023-01-19T12:29:34.837Z,23.41
2023-01-19T12:30:34.937Z,23.41
2023-01-19T12:31:34.926Z,23.38
2023-01-19T12:32:34.986Z,23.32
2023-01-19T12:33:34.688Z,23.29
2023-01-19T12:34:34.618Z,23.25
2023-01-19T12:35:34.582Z,23.19
2023-01-19T12:36:34.555Z,23.15
2023-01-19T12:37:34.508Z,23.09
2023-01-19T12:38:34.482Z,23.04
2023-01-19T12:39:34.476Z,23.00
2023-01-19T12:40:34.439Z,22.97
2023-01-19T12:41:34.411Z,22.96
2023-01-19T12:42:34.421Z,22.89
2023-01-19T12:43:34.324Z,22.86
2023-01-19T12:44:34.485Z,22.84
2023-01-19T12:45:34.270Z,22.82
2023-01-19T12:46:34.260Z,22.81
2023-01-19T12:47:34.155Z,22.78
2023-01-19T12:48:34.122Z,22.78
2023-01-19T12:49:34.092Z,22.76
2023-01-19T12:50:34.037Z,22.79
2023-01-19T12:51:34.037Z,22.79
2023-01-19T12:52:34.257Z,22.79